createdAt,value
2018-07-30T00:00:08.797Z,26.05
2018-07-30T00:02:44.662Z,25.97
2018-07-30T00:05:14.029Z,26.00
2018-07-30T00:07:43.552Z,25.96
2018-07-30T00:10:12.898Z,25.95
2018-07-30T00:12:42.274Z,25.89
2018-07-30T00:15:11.563Z,25.83
2018-07-30T00:17:40.879Z,25.79
2018-07-30T00:20:10.232Z,25.71
2018-07-30T00:22:39.520Z,25.76
2018-07-30T00:25:09.383Z,25.80
2018-07-30T00:27:38.716Z,25.99
2018-07-30T00:30:08.070Z,26.07
2018-07-30T00:32:37.446Z,26.08
2018-07-30T00:35:06.739Z,26.25
2018-07-30T00:37:36.018Z,26.06
2018-07-30T00:40:15.039Z,26.07
2018-07-30T00:42:46.788Z,25.83
2018-07-30T00:45:16.449Z,25.53
2018-07-30T00:47:45.817Z,25.36
2018-07-30T00:50:14.923Z,25.28
2018-07-30T00:52:44.313Z,25.27
2018-07-30T00:55:13.619Z,25.32
2018-07-30T00:57:42.985Z,25.17
2018-07-30T01:00:12.838Z,25.21
2018-07-30T01:02:42.169Z,25.38
2018-07-30T01:05:11.554Z,25.23
2018-07-30T01:07:40.841Z,25.17
2018-07-30T01:10:10.181Z,25.47
2018-07-30T01:12:39.510Z,25.53
2018-07-30T01:15:08.832Z,25.66
2018-07-30T01:17:38.184Z,25.34
2018-07-30T01:20:07.502Z,25.26
2018-07-30T01:22:37.395Z,25.27
2018-07-30T01:25:06.765Z,25.30
2018-07-30T01:27:36.026Z,25.29
2018-07-30T01:30:05.993Z,25.22
2018-07-30T01:32:35.263Z,25.11
2018-07-30T01:35:04.532Z,25.05
2018-07-30T01:37:33.882Z,25.10
2018-07-30T01:40:03.191Z,25.13
2018-07-30T01:42:32.474Z,25.24
2018-07-30T01:45:02.091Z,25.19
2018-07-30T01:47:31.400Z,25.37
2018-07-30T01:50:00.740Z,25.52
2018-07-30T01:52:30.078Z,25.31
2018-07-30T01:54:59.398Z,25.23
2018-07-30T01:57:28.695Z,25.24
2018-07-30T01:59:58.041Z,24.92
2018-07-30T02:02:27.369Z,25.17
2018-07-30T02:04:59.714Z,25.26
2018-07-30T02:07:29.029Z,25.35
2018-07-30T02:09:58.373Z,25.25
2018-07-30T02:12:27.677Z,25.35
2018-07-30T02:14:56.975Z,25.37
2018-07-30T02:17:26.241Z,25.37
2018-07-30T02:19:55.609Z,25.49
2018-07-30T02:22:24.910Z,25.25
2018-07-30T02:24:54.554Z,25.28
2018-07-30T02:27:24.210Z,25.26
2018-07-30T02:29:53.551Z,25.12
2018-07-30T02:32:22.929Z,25.12
2018-07-30T02:34:52.270Z,25.16
2018-07-30T02:37:21.564Z,25.18
2018-07-30T02:39:50.875Z,25.21
2018-07-30T02:42:20.321Z,25.30
2018-07-30T02:44:49.624Z,25.24
2018-07-30T02:47:18.879Z,25.13
2018-07-30T02:49:48.481Z,25.06
2018-07-30T02:52:17.775Z,25.04
2018-07-30T02:54:47.084Z,24.97
2018-07-30T02:57:16.521Z,24.95
2018-07-30T02:59:46.432Z,24.90
2018-07-30T03:02:15.761Z,24.97
2018-07-30T03:04:45.070Z,24.89
2018-07-30T03:07:14.373Z,24.79
2018-07-30T03:09:43.655Z,24.87
2018-07-30T03:12:13.589Z,24.94
2018-07-30T03:14:42.871Z,24.71
2018-07-30T03:17:12.153Z,24.69
2018-07-30T03:19:41.463Z,24.74
2018-07-30T03:22:10.780Z,24.70
2018-07-30T03:24:40.106Z,24.78
2018-07-30T03:27:09.461Z,24.83
2018-07-30T03:29:38.782Z,24.84
2018-07-30T03:32:08.195Z,24.82
2018-07-30T03:34:37.897Z,24.75
2018-07-30T03:37:07.174Z,24.74
2018-07-30T03:39:36.443Z,24.73
2018-07-30T03:42:06.046Z,24.69
2018-07-30T03:44:35.356Z,24.70
2018-07-30T03:47:04.615Z,24.63
2018-07-30T03:49:33.941Z,24.81
2018-07-30T03:52:03.254Z,24.72
2018-07-30T03:54:32.543Z,24.68
2018-07-30T03:57:02.150Z,24.51
2018-07-30T03:59:31.464Z,24.58
2018-07-30T04:02:01.155Z,24.67
2018-07-30T04:04:30.459Z,24.89
2018-07-30T04:06:59.898Z,24.93
2018-07-30T04:09:29.187Z,24.91
2018-07-30T04:11:58.877Z,24.79
2018-07-30T04:14:28.204Z,24.91
2018-07-30T04:16:57.498Z,24.66
2018-07-30T04:19:28.090Z,24.34
2018-07-30T04:21:58.009Z,24.08
2018-07-30T04:24:27.299Z,24.26
2018-07-30T04:26:56.585Z,24.36
2018-07-30T04:29:25.905Z,24.73
2018-07-30T04:31:55.188Z,24.96
2018-07-30T04:34:24.470Z,25.11
2018-07-30T04:36:53.724Z,25.07
2018-07-30T04:39:23.071Z,25.27
2018-07-30T04:41:52.472Z,25.35
2018-07-30T04:44:21.773Z,25.60
2018-07-30T04:46:51.181Z,25.54
2018-07-30T04:49:20.634Z,25.65
2018-07-30T04:51:49.937Z,25.68
2018-07-30T04:54:19.246Z,25.82
2018-07-30T04:56:48.548Z,25.74
2018-07-30T04:59:17.848Z,25.94
2018-07-30T05:01:47.216Z,26.07
2018-07-30T05:04:17.244Z,26.14
2018-07-30T05:06:46.509Z,26.28
2018-07-30T05:09:15.836Z,26.54
2018-07-30T05:11:45.142Z,26.64
2018-07-30T05:14:14.402Z,26.77
2018-07-30T05:16:43.688Z,26.64
2018-07-30T05:19:13.008Z,26.49
2018-07-30T05:21:42.737Z,26.62
2018-07-30T05:24:12.057Z,26.81
2018-07-30T05:26:41.795Z,26.94
2018-07-30T05:29:11.089Z,26.94
2018-07-30T05:31:40.353Z,26.88
2018-07-30T05:34:09.680Z,27.05
2018-07-30T05:36:38.966Z,27.19
2018-07-30T05:39:10.380Z,27.07
2018-07-30T05:41:39.662Z,26.76
2018-07-30T05:44:09.031Z,26.63
2018-07-30T05:46:38.827Z,26.18
2018-07-30T05:49:08.105Z,26.30
2018-07-30T05:51:37.363Z,26.27
2018-07-30T05:54:06.712Z,26.33
2018-07-30T05:56:36.012Z,26.54
2018-07-30T05:59:05.366Z,26.19
2018-07-30T06:01:34.689Z,26.03
2018-07-30T06:04:04.009Z,26.02
2018-07-30T06:06:33.307Z,26.13
2018-07-30T06:09:03.185Z,26.31
2018-07-30T06:11:32.450Z,26.80
2018-07-30T06:14:01.736Z,26.52
2018-07-30T06:16:31.059Z,26.52
2018-07-30T06:19:00.323Z,26.63
2018-07-30T06:21:29.633Z,27.05
2018-07-30T06:23:58.915Z,27.39
2018-07-30T06:26:28.288Z,27.63
2018-07-30T06:28:57.624Z,27.58
2018-07-30T06:31:27.502Z,27.43
2018-07-30T06:33:56.851Z,27.32
2018-07-30T06:36:26.154Z,27.59
2018-07-30T06:38:55.569Z,27.77
2018-07-30T06:41:24.878Z,27.59
2018-07-30T06:43:54.224Z,27.70
2018-07-30T06:46:23.515Z,27.59
2018-07-30T06:48:53.953Z,27.96
2018-07-30T06:51:23.330Z,28.21
2018-07-30T06:53:52.759Z,28.35
2018-07-30T06:56:21.992Z,28.51
2018-07-30T06:58:51.361Z,28.70
2018-07-30T07:01:20.706Z,28.63
2018-07-30T07:03:50.029Z,28.27
2018-07-30T07:06:19.480Z,28.47
2018-07-30T07:08:48.851Z,28.38
2018-07-30T07:11:18.177Z,28.47
2018-07-30T07:13:47.485Z,28.98
2018-07-30T07:16:17.179Z,29.49
2018-07-30T07:18:46.559Z,29.69
2018-07-30T07:21:16.853Z,30.11
2018-07-30T07:23:46.171Z,30.56
2018-07-30T07:26:15.433Z,30.83
2018-07-30T07:28:44.772Z,31.28
2018-07-30T07:31:14.078Z,31.27
2018-07-30T07:33:43.387Z,31.32
2018-07-30T07:36:12.695Z,31.48
2018-07-30T07:38:42.262Z,31.49
2018-07-30T07:41:12.443Z,31.27
2018-07-30T07:43:41.827Z,31.16
2018-07-30T07:46:11.198Z,31.63
2018-07-30T07:48:40.519Z,31.42
2018-07-30T07:51:10.017Z,31.38
2018-07-30T07:53:39.278Z,31.70
2018-07-30T07:56:08.649Z,31.78
2018-07-30T07:58:38.043Z,32.15
2018-07-30T08:01:07.517Z,32.43
2018-07-30T08:03:43.583Z,32.75
2018-07-30T08:06:12.878Z,32.67
2018-07-30T08:08:42.193Z,33.04
2018-07-30T08:11:11.480Z,33.44
2018-07-30T08:13:40.780Z,33.50
2018-07-30T08:16:10.113Z,33.84
2018-07-30T08:18:39.414Z,33.66
2018-07-30T08:21:09.232Z,33.54
2018-07-30T08:23:38.530Z,33.42
2018-07-30T08:26:07.851Z,33.41
2018-07-30T08:28:37.199Z,33.65
2018-07-30T08:31:06.868Z,33.18
2018-07-30T08:33:36.187Z,33.37
2018-07-30T08:36:05.519Z,33.40
2018-07-30T08:38:34.760Z,33.54
2018-07-30T08:41:04.086Z,33.79
2018-07-30T08:43:33.525Z,33.92
2018-07-30T08:46:02.790Z,34.19
2018-07-30T08:48:32.095Z,34.04
2018-07-30T08:51:01.401Z,34.09
2018-07-30T08:53:30.751Z,34.33
2018-07-30T08:56:00.092Z,34.39
2018-07-30T08:58:29.445Z,34.61
2018-07-30T09:00:58.741Z,35.19
2018-07-30T09:03:28.126Z,35.43
2018-07-30T09:05:57.572Z,35.79
2018-07-30T09:08:26.891Z,35.98
2018-07-30T09:10:56.211Z,36.13
2018-07-30T09:13:25.780Z,36.36
2018-07-30T09:15:55.124Z,36.56
2018-07-30T09:18:24.506Z,36.86
2018-07-30T09:20:53.991Z,37.06
2018-07-30T09:23:23.294Z,37.24
2018-07-30T09:25:52.634Z,37.69
2018-07-30T09:28:22.223Z,37.63
2018-07-30T09:30:51.523Z,37.75
2018-07-30T09:33:20.867Z,38.01
2018-07-30T09:35:50.214Z,38.01
2018-07-30T09:38:19.454Z,38.37
2018-07-30T09:40:48.783Z,38.17
2018-07-30T09:43:18.239Z,37.98
2018-07-30T09:45:47.678Z,37.69
2018-07-30T09:48:16.996Z,37.75
2018-07-30T09:50:46.599Z,37.89
2018-07-30T09:53:16.637Z,37.99
2018-07-30T09:55:45.994Z,37.85
2018-07-30T09:58:15.302Z,38.04
2018-07-30T10:00:49.965Z,38.04
2018-07-30T10:03:19.280Z,37.90
2018-07-30T10:05:48.595Z,37.48
2018-07-30T10:08:17.882Z,36.96
2018-07-30T10:10:47.704Z,36.91
2018-07-30T10:13:17.005Z,37.00
2018-07-30T10:15:46.084Z,37.18
2018-07-30T10:18:15.751Z,37.14
2018-07-30T10:20:44.775Z,37.21
2018-07-30T10:23:14.351Z,37.39
2018-07-30T10:25:43.683Z,37.44
2018-07-30T10:28:12.981Z,37.71
2018-07-30T10:30:42.349Z,38.01
2018-07-30T10:33:11.689Z,38.28
2018-07-30T10:35:40.971Z,38.77
2018-07-30T10:38:10.440Z,39.18
2018-07-30T10:40:39.710Z,39.10
2018-07-30T10:43:09.018Z,39.36
2018-07-30T10:45:38.396Z,39.40
2018-07-30T10:48:07.748Z,39.73
2018-07-30T10:50:36.987Z,39.80
2018-07-30T10:53:07.115Z,39.81
2018-07-30T10:55:36.714Z,39.24
2018-07-30T10:58:06.101Z,39.29
2018-07-30T11:00:35.409Z,39.36
2018-07-30T11:03:04.744Z,39.50
2018-07-30T11:05:34.079Z,40.15
2018-07-30T11:08:03.406Z,40.52
2018-07-30T11:10:32.753Z,40.55
2018-07-30T11:13:02.068Z,39.28
2018-07-30T11:15:31.406Z,38.97
2018-07-30T11:18:00.961Z,39.24
2018-07-30T11:20:30.243Z,38.90
2018-07-30T11:22:59.528Z,39.24
2018-07-30T11:25:28.932Z,39.23
2018-07-30T11:27:58.221Z,38.89
2018-07-30T11:30:27.447Z,38.70
2018-07-30T11:32:56.826Z,38.75
2018-07-30T11:35:26.088Z,38.61
2018-07-30T11:37:55.142Z,38.50
2018-07-30T11:40:24.512Z,38.61
2018-07-30T11:42:53.827Z,37.90
2018-07-30T11:45:23.163Z,37.99
2018-07-30T11:47:52.530Z,38.38
2018-07-30T11:50:21.833Z,38.55
2018-07-30T11:52:51.091Z,38.79
2018-07-30T11:55:20.432Z,38.38
2018-07-30T11:57:49.836Z,38.63
2018-07-30T12:00:19.104Z,38.73
2018-07-30T12:02:49.144Z,37.94
2018-07-30T12:05:18.440Z,37.64
2018-07-30T12:07:47.759Z,37.91
2018-07-30T12:10:17.084Z,37.97
2018-07-30T12:12:46.361Z,37.46
2018-07-30T12:15:15.693Z,38.02
2018-07-30T12:17:45.032Z,38.31
2018-07-30T12:20:14.401Z,38.20
2018-07-30T12:22:43.659Z,38.66
2018-07-30T12:25:13.246Z,38.99
2018-07-30T12:27:42.511Z,39.00
2018-07-30T12:30:11.947Z,38.38
2018-07-30T12:32:41.235Z,38.31
2018-07-30T12:35:10.536Z,38.27
2018-07-30T12:37:39.851Z,37.68
2018-07-30T12:40:09.196Z,37.78
2018-07-30T12:42:38.450Z,37.69
2018-07-30T12:45:07.784Z,37.29
2018-07-30T12:47:37.421Z,37.18
2018-07-30T12:50:06.843Z,37.56
2018-07-30T12:52:35.964Z,38.05
2018-07-30T12:55:05.340Z,38.20
2018-07-30T12:57:34.677Z,37.65
2018-07-30T13:00:03.703Z,37.59
2018-07-30T13:02:32.986Z,38.07
2018-07-30T13:05:02.397Z,38.60
2018-07-30T13:07:31.843Z,38.73
2018-07-30T13:10:01.686Z,38.88
2018-07-30T13:12:31.000Z,39.27
2018-07-30T13:15:00.283Z,39.49
2018-07-30T13:17:29.654Z,39.50
2018-07-30T13:19:58.953Z,39.57
2018-07-30T13:22:28.251Z,39.45
2018-07-30T13:24:57.569Z,38.65
2018-07-30T13:27:26.884Z,39.00
2018-07-30T13:29:56.179Z,39.18
2018-07-30T13:32:25.994Z,39.00
2018-07-30T13:34:55.327Z,37.72
2018-07-30T13:37:24.659Z,37.74
2018-07-30T13:39:54.472Z,37.80
2018-07-30T13:42:23.786Z,38.54
2018-07-30T13:44:53.198Z,39.36
2018-07-30T13:47:22.524Z,39.90
2018-07-30T13:49:51.882Z,40.21
2018-07-30T13:52:21.238Z,39.91
2018-07-30T13:54:50.817Z,39.43
2018-07-30T13:57:20.121Z,39.07
2018-07-30T13:59:49.441Z,39.58
2018-07-30T14:02:18.807Z,39.30
2018-07-30T14:04:48.084Z,39.02
2018-07-30T14:07:18.819Z,38.77
2018-07-30T14:09:48.127Z,39.07
2018-07-30T14:12:17.383Z,38.93
2018-07-30T14:14:46.652Z,38.86
2018-07-30T14:17:16.486Z,39.02
2018-07-30T14:19:45.568Z,39.51
2018-07-30T14:22:14.969Z,40.08
2018-07-30T14:24:44.258Z,40.03
2018-07-30T14:27:13.595Z,40.09
2018-07-30T14:29:42.895Z,39.97
2018-07-30T14:32:12.237Z,39.78
2018-07-30T14:34:41.526Z,39.82
2018-07-30T14:37:10.843Z,39.59
2018-07-30T14:39:40.400Z,39.85
2018-07-30T14:42:09.668Z,40.12
2018-07-30T14:44:38.931Z,39.90
2018-07-30T14:47:08.199Z,39.72
2018-07-30T14:49:37.466Z,39.26
2018-07-30T14:52:07.985Z,38.28
2018-07-30T14:54:37.302Z,37.83
2018-07-30T14:57:06.561Z,37.71
2018-07-30T14:59:35.918Z,37.73
2018-07-30T15:02:05.384Z,37.45
2018-07-30T15:04:34.658Z,37.50
2018-07-30T15:07:03.669Z,37.89
2018-07-30T15:09:33.418Z,37.28
2018-07-30T15:12:02.680Z,37.03
2018-07-30T15:14:31.996Z,37.22
2018-07-30T15:17:01.299Z,37.67
2018-07-30T15:19:30.598Z,38.02
2018-07-30T15:21:59.891Z,38.32
2018-07-30T15:24:29.334Z,38.62
2018-07-30T15:26:58.628Z,38.86
2018-07-30T15:29:27.991Z,38.84
2018-07-30T15:31:57.299Z,38.76
2018-07-30T15:34:26.571Z,38.87
2018-07-30T15:36:56.749Z,38.44
2018-07-30T15:39:26.122Z,37.90
2018-07-30T15:41:55.401Z,38.23
2018-07-30T15:44:24.464Z,38.66
2018-07-30T15:46:53.942Z,38.87
2018-07-30T15:49:23.208Z,39.21
2018-07-30T15:51:52.503Z,38.77
2018-07-30T15:54:21.823Z,38.49
2018-07-30T15:56:51.123Z,37.49
2018-07-30T15:59:20.418Z,37.87
2018-07-30T16:01:49.733Z,38.38
2018-07-30T16:04:19.085Z,38.49
2018-07-30T16:06:48.365Z,38.72
2018-07-30T16:09:17.952Z,38.51
2018-07-30T16:11:47.297Z,37.66
2018-07-30T16:14:16.924Z,37.87
2018-07-30T16:16:46.042Z,37.49
2018-07-30T16:19:15.428Z,37.64
2018-07-30T16:21:44.697Z,37.82
2018-07-30T16:24:14.042Z,37.93
2018-07-30T16:26:43.323Z,37.82
2018-07-30T16:29:12.765Z,37.96
2018-07-30T16:31:42.142Z,37.75
2018-07-30T16:34:11.451Z,37.43
2018-07-30T16:36:40.817Z,37.25
2018-07-30T16:39:11.167Z,37.51
2018-07-30T16:41:40.222Z,37.73
2018-07-30T16:44:09.590Z,37.74
2018-07-30T16:46:38.888Z,37.82
2018-07-30T16:49:08.225Z,37.96
2018-07-30T16:51:37.550Z,37.71
2018-07-30T16:54:07.428Z,37.50
2018-07-30T16:56:36.786Z,37.51
2018-07-30T16:59:06.114Z,37.28
2018-07-30T17:01:35.418Z,37.05
2018-07-30T17:04:04.799Z,37.07
2018-07-30T17:06:34.103Z,37.15
2018-07-30T17:09:03.579Z,37.14
2018-07-30T17:11:32.868Z,37.11
2018-07-30T17:14:02.260Z,37.12
2018-07-30T17:16:31.745Z,37.13
2018-07-30T17:19:01.095Z,36.96
2018-07-30T17:21:30.394Z,36.68
2018-07-30T17:23:59.687Z,36.68
2018-07-30T17:26:28.983Z,36.63
2018-07-30T17:28:58.580Z,36.68
2018-07-30T17:31:27.930Z,36.78
2018-07-30T17:33:57.028Z,36.90
2018-07-30T17:36:26.367Z,36.77
2018-07-30T17:38:55.780Z,36.80
2018-07-30T17:41:25.167Z,36.79
2018-07-30T17:43:54.512Z,36.77
2018-07-30T17:46:23.913Z,36.75
2018-07-30T17:48:53.866Z,36.72
2018-07-30T17:51:23.230Z,36.74
2018-07-30T17:53:52.511Z,36.59
2018-07-30T17:56:21.868Z,36.53
2018-07-30T17:58:51.474Z,36.60
2018-07-30T18:01:20.874Z,36.58
2018-07-30T18:03:50.168Z,36.61
2018-07-30T18:06:19.174Z,36.62
2018-07-30T18:08:48.211Z,36.53
2018-07-30T18:11:17.474Z,36.49
2018-07-30T18:13:46.809Z,36.38
2018-07-30T18:16:16.126Z,36.33
2018-07-30T18:18:45.542Z,36.31
2018-07-30T18:21:14.868Z,36.40
2018-07-30T18:23:44.669Z,36.46
2018-07-30T18:26:13.978Z,36.25
2018-07-30T18:28:43.013Z,36.09
2018-07-30T18:31:12.299Z,36.08
2018-07-30T18:33:41.682Z,35.96
2018-07-30T18:36:10.716Z,35.85
2018-07-30T18:38:40.047Z,35.65
2018-07-30T18:41:09.345Z,35.51
2018-07-30T18:43:38.697Z,35.39
2018-07-30T18:46:08.222Z,35.35
2018-07-30T18:48:37.543Z,35.06
2018-07-30T18:51:07.507Z,35.11
2018-07-30T18:53:36.963Z,35.07
2018-07-30T18:56:06.315Z,35.12
2018-07-30T18:58:35.630Z,34.86
2018-07-30T19:01:04.994Z,34.75
2018-07-30T19:03:34.249Z,34.68
2018-07-30T19:06:03.681Z,34.63
2018-07-30T19:08:33.447Z,34.54
2018-07-30T19:11:02.806Z,34.40
2018-07-30T19:13:32.102Z,34.37
2018-07-30T19:16:01.483Z,34.18
2018-07-30T19:18:30.741Z,34.26
2018-07-30T19:21:00.028Z,34.16
2018-07-30T19:23:29.375Z,33.96
2018-07-30T19:25:58.672Z,33.95
2018-07-30T19:28:27.980Z,33.99
2018-07-30T19:30:57.594Z,33.74
2018-07-30T19:33:26.911Z,33.63
2018-07-30T19:35:56.498Z,33.40
2018-07-30T19:38:25.791Z,33.44
2018-07-30T19:40:55.088Z,33.33
2018-07-30T19:43:24.539Z,33.15
2018-07-30T19:45:53.854Z,32.99
2018-07-30T19:48:23.211Z,33.04
2018-07-30T19:50:52.542Z,32.90
2018-07-30T19:53:22.346Z,32.89
2018-07-30T19:55:51.704Z,32.74
2018-07-30T19:58:21.470Z,32.83
2018-07-30T20:00:50.200Z,32.82
2018-07-30T20:03:19.466Z,32.73
2018-07-30T20:05:48.795Z,32.55
2018-07-30T20:08:17.947Z,32.60
2018-07-30T20:10:47.191Z,32.57
2018-07-30T20:13:16.302Z,32.43
2018-07-30T20:15:46.298Z,32.44
2018-07-30T20:18:15.640Z,32.46
2018-07-30T20:20:45.040Z,32.38
2018-07-30T20:23:14.360Z,32.40
2018-07-30T20:25:43.749Z,32.39
2018-07-30T20:28:13.071Z,32.30
2018-07-30T20:30:42.447Z,32.19
2018-07-30T20:33:11.788Z,32.26
2018-07-30T20:35:41.203Z,32.34
2018-07-30T20:38:10.635Z,32.27
2018-07-30T20:40:40.001Z,32.09
2018-07-30T20:43:09.402Z,32.05
2018-07-30T20:45:38.744Z,31.92
2018-07-30T20:48:08.203Z,31.86
2018-07-30T20:50:37.579Z,31.67
2018-07-30T20:53:06.864Z,31.75
2018-07-30T20:55:36.393Z,31.77
2018-07-30T20:58:05.668Z,31.70
2018-07-30T21:00:36.136Z,31.58
2018-07-30T21:03:05.403Z,31.48
2018-07-30T21:05:38.837Z,31.33
2018-07-30T21:08:08.408Z,31.36
2018-07-30T21:10:37.754Z,31.42
2018-07-30T21:13:07.106Z,31.28
2018-07-30T21:15:36.418Z,31.29
2018-07-30T21:18:05.712Z,31.13
2018-07-30T21:20:35.286Z,31.12
2018-07-30T21:23:04.596Z,31.20
2018-07-30T21:25:33.919Z,31.03
2018-07-30T21:28:03.246Z,30.72
2018-07-30T21:30:32.597Z,30.79
2018-07-30T21:33:01.638Z,30.82
2018-07-30T21:35:30.954Z,30.84
2018-07-30T21:38:00.227Z,30.77
2018-07-30T21:40:29.581Z,30.60
2018-07-30T21:42:59.383Z,30.62
2018-07-30T21:45:28.648Z,30.64
2018-07-30T21:47:57.974Z,30.67
2018-07-30T21:50:27.293Z,30.66
2018-07-30T21:52:56.716Z,30.58
2018-07-30T21:55:25.778Z,30.51
2018-07-30T21:57:55.046Z,30.41
2018-07-30T22:00:26.518Z,30.41
2018-07-30T22:02:58.011Z,30.26
2018-07-30T22:05:27.316Z,30.05
2018-07-30T22:07:56.778Z,29.89
2018-07-30T22:10:26.301Z,29.83
2018-07-30T22:12:56.110Z,29.80
2018-07-30T22:15:25.366Z,29.76
2018-07-30T22:17:54.691Z,29.64
2018-07-30T22:20:23.988Z,29.68
2018-07-30T22:22:53.270Z,29.60
2018-07-30T22:25:22.908Z,29.57
2018-07-30T22:27:52.288Z,29.62
2018-07-30T22:30:21.613Z,29.62
2018-07-30T22:32:50.935Z,29.34
2018-07-30T22:35:20.190Z,29.35
2018-07-30T22:37:49.450Z,29.35
2018-07-30T22:40:18.739Z,29.46
2018-07-30T22:42:47.988Z,29.26
2018-07-30T22:45:17.265Z,29.21
2018-07-30T22:47:46.976Z,29.46
2018-07-30T22:50:16.315Z,29.47
2018-07-30T22:52:45.694Z,29.50
2018-07-30T22:55:14.999Z,29.45
2018-07-30T22:57:44.347Z,29.43
2018-07-30T23:00:13.632Z,29.32
2018-07-30T23:02:42.977Z,29.25
2018-07-30T23:05:12.278Z,29.33
2018-07-30T23:07:41.638Z,29.13
2018-07-30T23:10:11.090Z,28.91
2018-07-30T23:12:40.409Z,28.97
2018-07-30T23:15:09.972Z,29.03
2018-07-30T23:17:39.243Z,29.04
2018-07-30T23:20:08.542Z,29.02
2018-07-30T23:22:37.863Z,29.08
2018-07-30T23:25:07.170Z,28.86
2018-07-30T23:27:36.424Z,28.98
2018-07-30T23:30:07.176Z,29.03
2018-07-30T23:32:36.887Z,29.11
2018-07-30T23:35:06.226Z,29.08
2018-07-30T23:37:35.476Z,29.03
2018-07-30T23:40:05.926Z,28.99
2018-07-30T23:42:35.278Z,29.11
2018-07-30T23:45:04.616Z,29.05
2018-07-30T23:47:33.963Z,29.06
2018-07-30T23:50:03.244Z,29.10
2018-07-30T23:52:32.525Z,28.97
2018-07-30T23:55:02.436Z,28.78
2018-07-30T23:57:31.687Z,28.87
